sensor_id;sensor_type;location;lat;lon;timestamp;pressure;altitude;pressure_sealevel;temperature;humidity
8294;BME280;4185;41.506;24.938;2022-07-22T00:02:02;93718.44;;;18.72;70.12
8294;BME280;4185;41.506;24.938;2022-07-22T00:04:29;93720.66;;;18.73;70.04
8294;BME280;4185;41.506;24.938;2022-07-22T00:06:56;93713.66;;;18.72;70.12
8294;BME280;4185;41.506;24.938;2022-07-22T00:09:23;93713.16;;;18.61;70.79
8294;BME280;4185;41.506;24.938;2022-07-22T00:11:51;93721.72;;;18.57;70.82
8294;BME280;4185;41.506;24.938;2022-07-22T00:14:18;93715.81;;;18.53;70.88
8294;BME280;4185;41.506;24.938;2022-07-22T00:16:45;93713.47;;;18.57;70.77
8294;BME280;4185;41.506;24.938;2022-07-22T00:19:12;93720.47;;;18.58;70.97
8294;BME280;4185;41.506;24.938;2022-07-22T00:21:39;93719.28;;;18.54;71.21
8294;BME280;4185;41.506;24.938;2022-07-22T00:24:07;93712.75;;;18.57;70.60
8294;BME280;4185;41.506;24.938;2022-07-22T00:26:34;93720.47;;;18.58;70.84
8294;BME280;4185;41.506;24.938;2022-07-22T00:29:02;93714.97;;;18.58;70.14
8294;BME280;4185;41.506;24.938;2022-07-22T00:31:29;93719.59;;;18.63;70.64
8294;BME280;4185;41.506;24.938;2022-07-22T00:33:57;93720.47;;;18.58;70.26
8294;BME280;4185;41.506;24.938;2022-07-22T00:36:26;93721.53;;;18.55;71.05
8294;BME280;4185;41.506;24.938;2022-07-22T00:38:53;93717.06;;;18.52;71.29
8294;BME280;4185;41.506;24.938;2022-07-22T00:41:20;93719.00;;;18.44;71.60
8294;BME280;4185;41.506;24.938;2022-07-22T00:43:51;93717.00;;;18.32;72.22
8294;BME280;4185;41.506;24.938;2022-07-22T00:46:20;93719.31;;;18.27;72.35
8294;BME280;4185;41.506;24.938;2022-07-22T00:48:47;93717.28;;;18.15;72.49
8294;BME280;4185;41.506;24.938;2022-07-22T00:51:14;93719.31;;;18.01;73.11
8294;BME280;4185;41.506;24.938;2022-07-22T00:53:42;93714.78;;;17.91;73.36
8294;BME280;4185;41.506;24.938;2022-07-22T00:56:09;93718.13;;;17.84;74.03
8294;BME280;4185;41.506;24.938;2022-07-22T00:58:36;93722.34;;;17.85;74.00
8294;BME280;4185;41.506;24.938;2022-07-22T01:01:04;93726.16;;;17.82;73.83
8294;BME280;4185;41.506;24.938;2022-07-22T01:03:32;93719.69;;;17.79;73.87
8294;BME280;4185;41.506;24.938;2022-07-22T01:05:59;93722.34;;;17.72;74.00
8294;BME280;4185;41.506;24.938;2022-07-22T01:08:26;93715.88;;;17.69;73.73
8294;BME280;4185;41.506;24.938;2022-07-22T01:10:53;93723.59;;;17.71;73.71
8294;BME280;4185;41.506;24.938;2022-07-22T01:13:20;93718.09;;;17.71;73.52
8294;BME280;4185;41.506;24.938;2022-07-22T01:15:47;93722.13;;;17.70;73.47
8294;BME280;4185;41.506;24.938;2022-07-22T01:18:14;93720.44;;;17.80;73.16
8294;BME280;4185;41.506;24.938;2022-07-22T01:20:42;93718.03;;;17.89;72.91
8294;BME280;4185;41.506;24.938;2022-07-22T01:23:09;93717.31;;;17.89;72.69
8294;BME280;4185;41.506;24.938;2022-07-22T01:25:36;93717.16;;;17.81;72.80
8294;BME280;4185;41.506;24.938;2022-07-22T01:28:03;93718.09;;;17.71;73.45
8294;BME280;4185;41.506;24.938;2022-07-22T01:30:30;93716.00;;;17.64;73.49
8294;BME280;4185;41.506;24.938;2022-07-22T01:32:56;93719.38;;;17.57;73.33
8294;BME280;4185;41.506;24.938;2022-07-22T01:35:23;93713.56;;;17.60;73.08
8294;BME280;4185;41.506;24.938;2022-07-22T01:37:52;93703.09;;;17.59;72.94
8294;BME280;4185;41.506;24.938;2022-07-22T01:40:18;93710.69;;;17.53;74.06
8294;BME280;4185;41.506;24.938;2022-07-22T01:42:45;93707.31;;;17.47;74.18
8294;BME280;4185;41.506;24.938;2022-07-22T01:45:12;93702.38;;;17.27;74.17
8294;BME280;4185;41.506;24.938;2022-07-22T01:47:39;93702.09;;;17.12;75.61
8294;BME280;4185;41.506;24.938;2022-07-22T01:50:08;93693.38;;;16.94;76.32
8294;BME280;4185;41.506;24.938;2022-07-22T01:52:37;93700.63;;;16.92;76.40
8294;BME280;4185;41.506;24.938;2022-07-22T01:55:06;93709.53;;;16.98;76.29
8294;BME280;4185;41.506;24.938;2022-07-22T01:57:33;93698.25;;;17.01;75.69
8294;BME280;4185;41.506;24.938;2022-07-22T02:00:03;93711.59;;;17.11;75.72
8294;BME280;4185;41.506;24.938;2022-07-22T02:02:31;93711.59;;;17.11;75.48
8294;BME280;4185;41.506;24.938;2022-07-22T02:04:57;93704.81;;;17.12;75.81
8294;BME280;4185;41.506;24.938;2022-07-22T02:07:24;93708.00;;;17.16;76.12
8294;BME280;4185;41.506;24.938;2022-07-22T02:09:52;93700.53;;;17.16;75.75
8294;BME280;4185;41.506;24.938;2022-07-22T02:12:20;93702.09;;;17.12;76.13
8294;BME280;4185;41.506;24.938;2022-07-22T02:14:47;93706.84;;;17.11;76.09
8294;BME280;4185;41.506;24.938;2022-07-22T02:17:14;93706.78;;;16.98;75.70
8294;BME280;4185;41.506;24.938;2022-07-22T02:19:41;93710.00;;;16.83;76.39
8294;BME280;4185;41.506;24.938;2022-07-22T02:22:08;93705.91;;;16.71;76.63
8294;BME280;4185;41.506;24.938;2022-07-22T02:24:35;93707.78;;;16.63;77.64
8294;BME280;4185;41.506;24.938;2022-07-22T02:27:02;93704.97;;;16.50;78.10
8294;BME280;4185;41.506;24.938;2022-07-22T02:29:31;93698.00;;;16.49;77.95
8294;BME280;4185;41.506;24.938;2022-07-22T02:31:59;93705.34;;;16.60;77.13
8294;BME280;4185;41.506;24.938;2022-07-22T02:34:26;93714.53;;;16.62;77.44
8294;BME280;4185;41.506;24.938;2022-07-22T02:36:53;93704.59;;;16.59;77.39
8294;BME280;4185;41.506;24.938;2022-07-22T02:39:20;93714.16;;;16.71;76.81
8294;BME280;4185;41.506;24.938;2022-07-22T02:41:47;93708.81;;;16.79;76.37
8294;BME280;4185;41.506;24.938;2022-07-22T02:44:14;93708.94;;;16.86;76.39
8294;BME280;4185;41.506;24.938;2022-07-22T02:46:42;93712.66;;;16.89;75.91
8294;BME280;4185;41.506;24.938;2022-07-22T02:49:09;93711.91;;;16.88;75.08
8294;BME280;4185;41.506;24.938;2022-07-22T02:51:36;93712.00;;;16.83;75.71
8294;BME280;4185;41.506;24.938;2022-07-22T02:54:03;93712.09;;;16.77;75.94
8294;BME280;4185;41.506;24.938;2022-07-22T02:56:30;93710.28;;;16.80;76.13
8294;BME280;4185;41.506;24.938;2022-07-22T02:58:56;93713.50;;;16.84;76.41
8294;BME280;4185;41.506;24.938;2022-07-22T03:01:23;93709.34;;;16.77;76.30
8294;BME280;4185;41.506;24.938;2022-07-22T03:03:51;93711.28;;;16.64;77.01
8294;BME280;4185;41.506;24.938;2022-07-22T03:06:19;93709.41;;;16.53;77.27
8294;BME280;4185;41.506;24.938;2022-07-22T03:08:46;93715.72;;;16.48;76.81
8294;BME280;4185;41.506;24.938;2022-07-22T03:11:13;93703.09;;;16.40;76.43
8294;BME280;4185;41.506;24.938;2022-07-22T03:13:40;93714.28;;;16.42;77.15
8294;BME280;4185;41.506;24.938;2022-07-22T03:16:07;93716.50;;;16.43;77.10
8294;BME280;4185;41.506;24.938;2022-07-22T03:18:34;93710.00;;;16.46;77.29
8294;BME280;4185;41.506;24.938;2022-07-22T03:21:03;93705.53;;;16.43;76.63
8294;BME280;4185;41.506;24.938;2022-07-22T03:23:30;93711.94;;;16.51;76.33
8294;BME280;4185;41.506;24.938;2022-07-22T03:25:57;93713.84;;;16.56;76.62
8294;BME280;4185;41.506;24.938;2022-07-22T03:28:24;93709.41;;;16.53;76.50
8294;BME280;4185;41.506;24.938;2022-07-22T03:30:52;93719.50;;;16.64;76.70
8294;BME280;4185;41.506;24.938;2022-07-22T03:33:19;93716.00;;;16.63;77.00
8294;BME280;4185;41.506;24.938;2022-07-22T03:35:46;93712.38;;;16.55;77.02
8294;BME280;4185;41.506;24.938;2022-07-22T03:38:14;93715.22;;;16.44;77.22
8294;BME280;4185;41.506;24.938;2022-07-22T03:40:41;93715.81;;;16.37;77.79
8294;BME280;4185;41.506;24.938;2022-07-22T03:43:08;93704.03;;;16.24;77.73
8294;BME280;4185;41.506;24.938;2022-07-22T03:45:35;93710.72;;;16.28;77.96
8294;BME280;4185;41.506;24.938;2022-07-22T03:48:01;93706.69;;;16.29;77.95
8294;BME280;4185;41.506;24.938;2022-07-22T03:50:28;93703.72;;;16.27;78.08
8294;BME280;4185;41.506;24.938;2022-07-22T03:52:55;93711.94;;;16.27;77.94
8294;BME280;4185;41.506;24.938;2022-07-22T03:55:23;93712.75;;;16.22;77.84
8294;BME280;4185;41.506;24.938;2022-07-22T03:57:50;93715.16;;;16.31;78.16
8294;BME280;4185;41.506;24.938;2022-07-22T04:00:17;93716.50;;;16.43;77.77
8294;BME280;4185;41.506;24.938;2022-07-22T04:02:44;93718.88;;;16.52;76.83
8294;BME280;4185;41.506;24.938;2022-07-22T04:05:11;93713.84;;;16.56;76.77
8294;BME280;4185;41.506;24.938;2022-07-22T04:07:37;93718.00;;;16.63;76.56
8294;BME280;4185;41.506;24.938;2022-07-22T04:10:05;93713.72;;;16.67;76.63
8294;BME280;4185;41.506;24.938;2022-07-22T04:12:35;93720.22;;;16.64;76.41
8294;BME280;4185;41.506;24.938;2022-07-22T04:15:03;93710.97;;;16.67;76.80
8294;BME280;4185;41.506;24.938;2022-07-22T04:17:30;93714.91;;;16.72;76.21
8294;BME280;4185;41.506;24.938;2022-07-22T04:19:57;93713.56;;;16.78;77.07
8294;BME280;4185;41.506;24.938;2022-07-22T04:22:24;93708.72;;;16.84;76.63
8294;BME280;4185;41.506;24.938;2022-07-22T04:24:51;93706.59;;;16.96;76.40
8294;BME280;4185;41.506;24.938;2022-07-22T04:27:18;93710.28;;;16.98;76.31
8294;BME280;4185;41.506;24.938;2022-07-22T04:29:47;93710.72;;;17.02;76.13
8294;BME280;4185;41.506;24.938;2022-07-22T04:32:13;93711.81;;;17.13;76.00
8294;BME280;4185;41.506;24.938;2022-07-22T04:34:40;93716.03;;;17.14;76.01
8294;BME280;4185;41.506;24.938;2022-07-22T04:37:07;93716.78;;;17.14;76.43
8294;BME280;4185;41.506;24.938;2022-07-22T04:39:34;93709.06;;;17.13;76.53
8294;BME280;4185;41.506;24.938;2022-07-22T04:42:01;93717.66;;;17.22;75.99
8294;BME280;4185;41.506;24.938;2022-07-22T04:44:28;93714.97;;;17.35;76.10
8294;BME280;4185;41.506;24.938;2022-07-22T04:46:56;93718.03;;;17.45;76.01
8294;BME280;4185;41.506;24.938;2022-07-22T04:49:23;93718.41;;;17.54;75.87
8294;BME280;4185;41.506;24.938;2022-07-22T04:51:51;93714.94;;;17.67;75.39
8294;BME280;4185;41.506;24.938;2022-07-22T04:54:18;93712.41;;;17.69;75.67
8294;BME280;4185;41.506;24.938;2022-07-22T04:56:45;93716.00;;;17.77;75.35
8294;BME280;4185;41.506;24.938;2022-07-22T04:59:11;93709.78;;;17.89;74.91
8294;BME280;4185;41.506;24.938;2022-07-22T05:01:38;93707.38;;;17.99;75.10
8294;BME280;4185;41.506;24.938;2022-07-22T05:04:06;93713.38;;;18.10;74.99
8294;BME280;4185;41.506;24.938;2022-07-22T05:06:33;93706.28;;;18.15;75.53
8294;BME280;4185;41.506;24.938;2022-07-22T05:09:00;93701.31;;;18.26;74.50
8294;BME280;4185;41.506;24.938;2022-07-22T05:11:27;93709.25;;;18.30;74.97
8294;BME280;4185;41.506;24.938;2022-07-22T05:13:54;93696.88;;;18.37;74.82
8294;BME280;4185;41.506;24.938;2022-07-22T05:16:20;93707.88;;;18.50;74.72
8294;BME280;4185;41.506;24.938;2022-07-22T05:18:47;93701.75;;;18.57;74.74
8294;BME280;4185;41.506;24.938;2022-07-22T05:21:15;93696.53;;;18.66;74.92
8294;BME280;4185;41.506;24.938;2022-07-22T05:23:42;93690.59;;;18.75;74.83
8294;BME280;4185;41.506;24.938;2022-07-22T05:26:09;93698.38;;;18.84;74.25
8294;BME280;4185;41.506;24.938;2022-07-22T05:28:36;93693.38;;;18.96;74.26
8294;BME280;4185;41.506;24.938;2022-07-22T05:31:03;93689.22;;;19.02;74.22
8294;BME280;4185;41.506;24.938;2022-07-22T05:33:30;93699.38;;;19.07;74.09
8294;BME280;4185;41.506;24.938;2022-07-22T05:35:57;93693.59;;;19.18;74.28
8294;BME280;4185;41.506;24.938;2022-07-22T05:38:25;93680.63;;;19.26;74.43
8294;BME280;4185;41.506;24.938;2022-07-22T05:40:52;93686.13;;;19.39;73.61
8294;BME280;4185;41.506;24.938;2022-07-22T05:43:19;93686.56;;;19.51;74.16
8294;BME280;4185;41.506;24.938;2022-07-22T05:45:45;93681.84;;;19.59;74.18
8294;BME280;4185;41.506;24.938;2022-07-22T05:48:12;93678.28;;;19.72;72.75
8294;BME280;4185;41.506;24.938;2022-07-22T05:50:39;93677.63;;;19.79;72.11
8294;BME280;4185;41.506;24.938;2022-07-22T05:53:06;93675.63;;;19.87;71.50
8294;BME280;4185;41.506;24.938;2022-07-22T05:55:34;93679.59;;;19.99;70.92
8294;BME280;4185;41.506;24.938;2022-07-22T05:58:01;93674.84;;;20.07;70.39
8294;BME280;4185;41.506;24.938;2022-07-22T06:00:28;93666.47;;;20.20;70.00
8294;BME280;4185;41.506;24.938;2022-07-22T06:02:55;93673.84;;;20.25;70.63
8294;BME280;4185;41.506;24.938;2022-07-22T06:05:22;93679.25;;;20.38;70.12
8294;BME280;4185;41.506;24.938;2022-07-22T06:07:49;93674.72;;;20.48;70.31
8294;BME280;4185;41.506;24.938;2022-07-22T06:10:15;93669.22;;;20.55;70.08
8294;BME280;4185;41.506;24.938;2022-07-22T06:12:44;93679.22;;;20.66;70.08
8294;BME280;4185;41.506;24.938;2022-07-22T06:15:10;93658.22;;;20.71;69.92
8294;BME280;4185;41.506;24.938;2022-07-22T06:17:37;93672.63;;;20.84;69.35
8294;BME280;4185;41.506;24.938;2022-07-22T06:20:05;93669.91;;;20.92;68.22
8294;BME280;4185;41.506;24.938;2022-07-22T06:22:32;93670.13;;;21.01;68.85
8294;BME280;4185;41.506;24.938;2022-07-22T06:24:59;93665.75;;;21.13;68.49
8294;BME280;4185;41.506;24.938;2022-07-22T06:27:26;93667.59;;;21.18;68.60
8294;BME280;4185;41.506;24.938;2022-07-22T06:29:54;93666.31;;;21.27;68.66
8294;BME280;4185;41.506;24.938;2022-07-22T06:32:21;93663.53;;;21.34;68.02
8294;BME280;4185;41.506;24.938;2022-07-22T06:34:48;93657.47;;;21.43;67.91
8294;BME280;4185;41.506;24.938;2022-07-22T06:37:14;93661.16;;;21.53;67.21
8294;BME280;4185;41.506;24.938;2022-07-22T06:39:41;93661.38;;;21.63;67.11
8294;BME280;4185;41.506;24.938;2022-07-22T06:42:08;93666.88;;;21.70;66.47
8294;BME280;4185;41.506;24.938;2022-07-22T06:44:35;93659.53;;;21.81;66.24
8294;BME280;4185;41.506;24.938;2022-07-22T06:47:03;93657.66;;;21.91;66.55
8294;BME280;4185;41.506;24.938;2022-07-22T06:49:30;93662.66;;;22.00;66.07
8294;BME280;4185;41.506;24.938;2022-07-22T06:51:57;93663.72;;;22.12;65.79
8294;BME280;4185;41.506;24.938;2022-07-22T06:54:24;93660.94;;;22.19;64.85
8294;BME280;4185;41.506;24.938;2022-07-22T06:56:51;93663.88;;;22.29;65.19
8294;BME280;4185;41.506;24.938;2022-07-22T06:59:18;93653.88;;;22.41;64.86
8294;BME280;4185;41.506;24.938;2022-07-22T07:01:44;93657.34;;;22.49;63.47
8294;BME280;4185;41.506;24.938;2022-07-22T07:04:13;93658.25;;;22.59;64.35
8294;BME280;4185;41.506;24.938;2022-07-22T07:06:39;93664.50;;;22.67;63.16
8294;BME280;4185;41.506;24.938;2022-07-22T07:09:06;93656.75;;;22.73;62.06
8294;BME280;4185;41.506;24.938;2022-07-22T07:11:34;93650.41;;;22.80;62.26
8294;BME280;4185;41.506;24.938;2022-07-22T07:14:01;93657.00;;;22.92;62.48
8294;BME280;4185;41.506;24.938;2022-07-22T07:16:28;93653.06;;;23.03;61.83
8294;BME280;4185;41.506;24.938;2022-07-22T07:18:55;93652.06;;;23.15;61.10
8294;BME280;4185;41.506;24.938;2022-07-22T07:21:23;93648.31;;;23.28;61.70
8294;BME280;4185;41.506;24.938;2022-07-22T07:23:51;93636.84;;;23.31;61.32
8294;BME280;4185;41.506;24.938;2022-07-22T07:26:18;93650.00;;;23.48;61.47
8294;BME280;4185;41.506;24.938;2022-07-22T07:28:45;93646.81;;;23.59;61.34
8294;BME280;4185;41.506;24.938;2022-07-22T07:31:12;93649.84;;;23.70;61.06
8294;BME280;4185;41.506;24.938;2022-07-22T07:33:39;93647.34;;;23.82;61.27
8294;BME280;4185;41.506;24.938;2022-07-22T07:36:06;93645.00;;;23.95;62.01
8294;BME280;4185;41.506;24.938;2022-07-22T07:38:34;93648.78;;;24.07;61.74
8294;BME280;4185;41.506;24.938;2022-07-22T07:41:01;93644.22;;;24.20;60.58
8294;BME280;4185;41.506;24.938;2022-07-22T07:43:28;93643.72;;;24.31;59.87
8294;BME280;4185;41.506;24.938;2022-07-22T07:45:55;93647.50;;;24.43;59.65
8294;BME280;4185;41.506;24.938;2022-07-22T07:48:22;93644.22;;;24.54;59.11
8294;BME280;4185;41.506;24.938;2022-07-22T07:50:49;93639.47;;;24.64;59.57
8294;BME280;4185;41.506;24.938;2022-07-22T07:53:17;93642.84;;;24.79;60.63
8294;BME280;4185;41.506;24.938;2022-07-22T07:55:45;93646.00;;;24.93;60.44
8294;BME280;4185;41.506;24.938;2022-07-22T07:58:12;93646.94;;;25.05;60.38
8294;BME280;4185;41.506;24.938;2022-07-22T08:00:39;93645.09;;;25.17;60.07
8294;BME280;4185;41.506;24.938;2022-07-22T08:03:08;93646.63;;;25.27;59.57
8294;BME280;4185;41.506;24.938;2022-07-22T08:05:35;93646.69;;;25.37;60.19
8294;BME280;4185;41.506;24.938;2022-07-22T08:08:04;93645.00;;;25.51;60.63
8294;BME280;4185;41.506;24.938;2022-07-22T08:10:31;93650.03;;;25.62;60.34
8294;BME280;4185;41.506;24.938;2022-07-22T08:12:59;93646.84;;;25.75;59.07
8294;BME280;4185;41.506;24.938;2022-07-22T08:15:27;93641.31;;;25.85;58.37
8294;BME280;4185;41.506;24.938;2022-07-22T08:17:55;93641.47;;;25.96;57.86
8294;BME280;4185;41.506;24.938;2022-07-22T08:20:22;93642.25;;;26.06;57.48
8294;BME280;4185;41.506;24.938;2022-07-22T08:22:49;93638.59;;;26.13;58.04
8294;BME280;4185;41.506;24.938;2022-07-22T08:25:16;93642.44;;;26.27;55.70
8294;BME280;4185;41.506;24.938;2022-07-22T08:27:43;93643.03;;;26.35;55.15
8294;BME280;4185;41.506;24.938;2022-07-22T08:30:12;93646.53;;;26.45;54.15
8294;BME280;4185;41.506;24.938;2022-07-22T08:32:39;93637.47;;;26.55;55.10
8294;BME280;4185;41.506;24.938;2022-07-22T08:35:07;93638.03;;;26.63;55.57
8294;BME280;4185;41.506;24.938;2022-07-22T08:37:34;93642.31;;;26.73;53.46
8294;BME280;4185;41.506;24.938;2022-07-22T08:40:02;93636.59;;;26.81;51.79
8294;BME280;4185;41.506;24.938;2022-07-22T08:42:30;93627.94;;;26.86;50.41
8294;BME280;4185;41.506;24.938;2022-07-22T08:44:57;93640.84;;;27.01;50.60
8294;BME280;4185;41.506;24.938;2022-07-22T08:47:25;93639.03;;;27.15;50.63
8294;BME280;4185;41.506;24.938;2022-07-22T08:49:52;93637.81;;;27.27;50.54
8294;BME280;4185;41.506;24.938;2022-07-22T08:52:19;93638.69;;;27.39;49.31
8294;BME280;4185;41.506;24.938;2022-07-22T08:54:46;93639.53;;;27.51;49.03
8294;BME280;4185;41.506;24.938;2022-07-22T08:57:12;93640.94;;;27.62;47.98
8294;BME280;4185;41.506;24.938;2022-07-22T08:59:50;93639.72;;;27.75;49.80
8294;BME280;4185;41.506;24.938;2022-07-22T09:02:17;93638.50;;;27.87;48.76
8294;BME280;4185;41.506;24.938;2022-07-22T09:04:55;93641.56;;;27.91;46.78
8294;BME280;4185;41.506;24.938;2022-07-22T09:07:24;93642.84;;;28.00;46.61
8294;BME280;4185;41.506;24.938;2022-07-22T09:09:51;93637.34;;;28.11;47.02
8294;BME280;4185;41.506;24.938;2022-07-22T09:12:18;93632.84;;;28.27;44.47
8294;BME280;4185;41.506;24.938;2022-07-22T09:14:46;93643.47;;;28.40;41.47
8294;BME280;4185;41.506;24.938;2022-07-22T09:17:24;93641.66;;;28.45;42.21
8294;BME280;4185;41.506;24.938;2022-07-22T09:19:54;93643.44;;;28.50;42.82
8294;BME280;4185;41.506;24.938;2022-07-22T09:22:32;93639.00;;;28.56;43.30
8294;BME280;4185;41.506;24.938;2022-07-22T09:24:59;93640.34;;;28.67;42.58
8294;BME280;4185;41.506;24.938;2022-07-22T09:27:43;93636.00;;;28.75;42.79
8294;BME280;4185;41.506;24.938;2022-07-22T09:30:13;93640.19;;;28.86;41.67
8294;BME280;4185;41.506;24.938;2022-07-22T09:32:42;93647.97;;;28.88;41.38
8294;BME280;4185;41.506;24.938;2022-07-22T09:35:11;93640.22;;;28.98;43.99
8294;BME280;4185;41.506;24.938;2022-07-22T09:37:47;93643.16;;;29.00;43.11
8294;BME280;4185;41.506;24.938;2022-07-22T09:40:15;93638.53;;;29.04;42.65
8294;BME280;4185;41.506;24.938;2022-07-22T09:42:48;93635.69;;;29.14;42.28
8294;BME280;4185;41.506;24.938;2022-07-22T09:45:16;93634.13;;;29.22;42.22
8294;BME280;4185;41.506;24.938;2022-07-22T09:47:44;93638.19;;;29.31;41.93
8294;BME280;4185;41.506;24.938;2022-07-22T09:50:18;93637.94;;;29.38;40.89
8294;BME280;4185;41.506;24.938;2022-07-22T09:52:45;93631.84;;;29.42;40.25
8294;BME280;4185;41.506;24.938;2022-07-22T09:55:14;93638.06;;;29.52;41.45
8294;BME280;4185;41.506;24.938;2022-07-22T09:57:42;93637.72;;;29.57;40.71
8294;BME280;4185;41.506;24.938;2022-07-22T10:00:10;93624.47;;;29.58;40.70
8294;BME280;4185;41.506;24.938;2022-07-22T10:02:48;93628.75;;;29.70;41.09
8294;BME280;4185;41.506;24.938;2022-07-22T10:05:19;93638.13;;;29.75;40.95
8294;BME280;4185;41.506;24.938;2022-07-22T10:07:47;93631.44;;;29.80;40.55
8294;BME280;4185;41.506;24.938;2022-07-22T10:10:16;93633.97;;;29.87;40.25
8294;BME280;4185;41.506;24.938;2022-07-22T10:12:44;93639.22;;;29.93;39.91
8294;BME280;4185;41.506;24.938;2022-07-22T10:15:12;93637.88;;;29.94;39.87
8294;BME280;4185;41.506;24.938;2022-07-22T10:17:41;93626.78;;;29.96;38.95
8294;BME280;4185;41.506;24.938;2022-07-22T10:20:09;93636.66;;;29.97;40.72
8294;BME280;4185;41.506;24.938;2022-07-22T10:22:51;93639.56;;;29.99;39.13
8294;BME280;4185;41.506;24.938;2022-07-22T10:25:19;93637.50;;;30.00;39.95
8294;BME280;4185;41.506;24.938;2022-07-22T10:27:47;93624.13;;;29.98;40.74
8294;BME280;4185;41.506;24.938;2022-07-22T10:30:17;93632.38;;;30.08;40.75
8294;BME280;4185;41.506;24.938;2022-07-22T10:32:44;93627.16;;;30.25;40.66
8294;BME280;4185;41.506;24.938;2022-07-22T10:35:24;93626.78;;;30.31;41.41
8294;BME280;4185;41.506;24.938;2022-07-22T10:37:55;93629.59;;;30.31;39.60
8294;BME280;4185;41.506;24.938;2022-07-22T10:40:24;93626.25;;;30.34;40.58
8294;BME280;4185;41.506;24.938;2022-07-22T10:43:09;93635.97;;;30.56;41.41
8294;BME280;4185;41.506;24.938;2022-07-22T10:45:39;93626.66;;;30.65;40.20
8294;BME280;4185;41.506;24.938;2022-07-22T10:48:08;93628.38;;;30.70;40.80
8294;BME280;4185;41.506;24.938;2022-07-22T10:50:49;93637.38;;;30.80;41.09
8294;BME280;4185;41.506;24.938;2022-07-22T10:53:20;93637.13;;;30.88;40.11
8294;BME280;4185;41.506;24.938;2022-07-22T10:55:59;93632.91;;;31.00;39.21
8294;BME280;4185;41.506;24.938;2022-07-22T10:58:47;93636.75;;;31.07;40.25
8294;BME280;4185;41.506;24.938;2022-07-22T11:01:16;93636.25;;;31.11;40.28
8294;BME280;4185;41.506;24.938;2022-07-22T11:03:46;93628.19;;;31.17;40.02
8294;BME280;4185;41.506;24.938;2022-07-22T11:06:16;93630.00;;;31.24;40.14
8294;BME280;4185;41.506;24.938;2022-07-22T11:08:46;93623.59;;;31.35;40.25
8294;BME280;4185;41.506;24.938;2022-07-22T11:11:14;93627.78;;;31.47;39.93
8294;BME280;4185;41.506;24.938;2022-07-22T11:13:42;93629.97;;;31.49;39.77
8294;BME280;4185;41.506;24.938;2022-07-22T11:16:20;93630.53;;;31.59;39.10
8294;BME280;4185;41.506;24.938;2022-07-22T11:18:50;93619.69;;;31.53;37.68
8294;BME280;4185;41.506;24.938;2022-07-22T11:21:18;93630.00;;;31.62;37.50
8294;BME280;4185;41.506;24.938;2022-07-22T11:23:48;93627.63;;;31.70;38.76
8294;BME280;4185;41.506;24.938;2022-07-22T11:26:20;93630.97;;;31.80;38.28
8294;BME280;4185;41.506;24.938;2022-07-22T11:28:51;93637.75;;;31.89;39.39
8294;BME280;4185;41.506;24.938;2022-07-22T11:31:18;93629.63;;;31.95;37.32
8294;BME280;4185;41.506;24.938;2022-07-22T11:33:45;93617.75;;;31.83;37.93
8294;BME280;4185;41.506;24.938;2022-07-22T11:36:12;93631.91;;;31.85;38.12
8294;BME280;4185;41.506;24.938;2022-07-22T11:38:44;93639.75;;;31.86;38.44
8294;BME280;4185;41.506;24.938;2022-07-22T11:41:14;93629.22;;;32.00;37.63
8294;BME280;4185;41.506;24.938;2022-07-22T11:43:43;93630.91;;;32.19;38.43
8294;BME280;4185;41.506;24.938;2022-07-22T11:46:10;93624.75;;;32.36;37.26
8294;BME280;4185;41.506;24.938;2022-07-22T11:48:38;93629.03;;;32.51;37.22
8294;BME280;4185;41.506;24.938;2022-07-22T11:51:06;93635.47;;;32.53;35.68
8294;BME280;4185;41.506;24.938;2022-07-22T11:53:34;93622.34;;;32.58;35.63
8294;BME280;4185;41.506;24.938;2022-07-22T11:56:02;93626.00;;;32.60;36.17
8294;BME280;4185;41.506;24.938;2022-07-22T11:58:41;93629.03;;;32.64;36.61
8294;BME280;4185;41.506;24.938;2022-07-22T12:01:10;93626.00;;;32.60;36.26
8294;BME280;4185;41.506;24.938;2022-07-22T12:03:39;93620.22;;;32.72;34.53
8294;BME280;4185;41.506;24.938;2022-07-22T12:06:08;93622.53;;;32.75;33.20
8294;BME280;4185;41.506;24.938;2022-07-22T12:08:40;93613.59;;;32.65;32.45
8294;BME280;4185;41.506;24.938;2022-07-22T12:11:08;93611.31;;;32.48;32.52
8294;BME280;4185;41.506;24.938;2022-07-22T12:13:36;93612.34;;;32.55;33.41
8294;BME280;4185;41.506;24.938;2022-07-22T12:16:19;93615.03;;;32.66;31.44
8294;BME280;4185;41.506;24.938;2022-07-22T12:18:55;93607.75;;;32.61;31.18
8294;BME280;4185;41.506;24.938;2022-07-22T12:21:23;93605.25;;;32.67;30.96
8294;BME280;4185;41.506;24.938;2022-07-22T12:23:55;93589.50;;;32.76;30.98
8294;BME280;4185;41.506;24.938;2022-07-22T12:26:43;93601.41;;;32.90;32.05
8294;BME280;4185;41.506;24.938;2022-07-22T12:29:19;93598.41;;;32.99;30.69
8294;BME280;4185;41.506;24.938;2022-07-22T12:31:49;93597.03;;;33.00;31.30
8294;BME280;4185;41.506;24.938;2022-07-22T12:34:17;93606.22;;;33.01;31.45
8294;BME280;4185;41.506;24.938;2022-07-22T12:36:45;93595.53;;;33.13;30.03
8294;BME280;4185;41.506;24.938;2022-07-22T12:39:14;93595.47;;;33.26;30.55
8294;BME280;4185;41.506;24.938;2022-07-22T12:41:48;93589.88;;;33.42;31.15
8294;BME280;4185;41.506;24.938;2022-07-22T12:44:17;93594.50;;;33.51;29.36
8294;BME280;4185;41.506;24.938;2022-07-22T12:46:45;93598.06;;;33.52;29.54
8294;BME280;4185;41.506;24.938;2022-07-22T12:49:14;93583.44;;;33.55;30.56
8294;BME280;4185;41.506;24.938;2022-07-22T12:51:41;93590.63;;;33.74;30.39
8294;BME280;4185;41.506;24.938;2022-07-22T12:54:08;93590.63;;;33.74;27.81
8294;BME280;4185;41.506;24.938;2022-07-22T12:56:35;93586.59;;;33.63;28.87
8294;BME280;4185;41.506;24.938;2022-07-22T12:59:02;93588.78;;;33.80;29.52
8294;BME280;4185;41.506;24.938;2022-07-22T13:01:29;93591.88;;;33.86;29.21
8294;BME280;4185;41.506;24.938;2022-07-22T13:03:56;93587.41;;;33.81;29.33
8294;BME280;4185;41.506;24.938;2022-07-22T13:06:24;93589.50;;;33.96;28.87
8294;BME280;4185;41.506;24.938;2022-07-22T13:08:51;93590.53;;;34.03;29.25
8294;BME280;4185;41.506;24.938;2022-07-22T13:11:17;93589.97;;;33.91;28.19
8294;BME280;4185;41.506;24.938;2022-07-22T13:13:44;93586.41;;;33.75;29.12
8294;BME280;4185;41.506;24.938;2022-07-22T13:16:13;93590.16;;;33.79;29.02